Capt. Kirk Colletti — WDF9430 — position and weather

sailwx.info

Track history (hours):
 
Tides and Currents Weather Stations Pressure Air Temp Water Temp Dewpoint Dewpoint Depression Visibility Wind Speed Wind Dir Waves Ship Positions

Capt. Kirk Colletti

Owner: Genesis Marine, LLC, Houston, TX. More information available from US FCC via Universal Licensing System and Coast Guard Vessel Documentation Center.

Last reported at 2017-Nov-10 17:23 UTC. Time now 2017-Nov-22 01:37 UTC.
Position N 29°29' W 094°52'.
Warning: this ship's position is 11 days out of date.

Length 25 m; draft 3 m.

Type: Other ship. MMSI: 367505080.

Date/timePositionNaut miles runAvg speedWind from/ knotsBaromVisibWave heightAir tempDewpointWater temp
2017-Nov-10 17:23N 29°29' W 094°52'3 7.0
2017-Nov-10 16:58N 29°31' W 094°53'3 6.9
2017-Nov-10 16:30N 29°34' W 094°55'3 6.2
2017-Nov-10 16:00N 29°37' W 094°57'3 6.2
2017-Nov-10 15:30N 29°40' W 094°58'3 6.3
2017-Nov-10 14:58N 29°42' W 095°01'6 2.3
2017-Nov-10 12:24N 29°46' W 095°06'2 5.1
2017-Nov-10 12:00N 29°45' W 095°04'2 2.0
2017-Nov-10 11:12N 29°44' W 095°03'0 0.4
2017-Nov-10 10:55N 29°44' W 095°03'0 0.0
2017-Nov-10 10:30N 29°44' W 095°03'  
2017-Nov-07 13:45N 29°46' W 095°06'0 0.0
2017-Nov-07 01:09N 29°46' W 095°06'0 0.0
2017-Nov-06 22:26N 29°46' W 095°06'0 0.0
2017-Nov-05 04:32N 29°46' W 095°06'0 0.0
2017-Nov-05 04:19N 29°46' W 095°06'0 0.0
2017-Nov-05 03:58N 29°46' W 095°06'2 0.0
2017-Nov-03 12:09N 29°47' W 095°04'2 4.0
2017-Nov-03 11:42N 29°45' W 095°06'1 2.8
2017-Nov-03 11:30N 29°46' W 095°06'1 1.4
2017-Nov-03 10:55N 29°46' W 095°07'0 0.0
2017-Nov-03 10:28N 29°46' W 095°07'0 0.0
2017-Nov-03 09:57N 29°46' W 095°07'0 0.0
2017-Nov-03 09:05N 29°46' W 095°07'0 0.0
2017-Nov-03 08:53N 29°46' W 095°07'0 0.0
2017-Nov-03 08:12N 29°46' W 095°07'0 0.0
2017-Nov-03 07:50N 29°46' W 095°07'0 0.0
2017-Nov-03 07:08N 29°46' W 095°07'0 0.0
2017-Nov-03 06:54N 29°46' W 095°07'0 0.0
2017-Nov-03 05:20N 29°46' W 095°07'0 0.0
2017-Nov-03 03:52N 29°46' W 095°07'0 0.0
2017-Nov-03 03:29N 29°46' W 095°07'0 0.0
2017-Nov-03 02:59N 29°46' W 095°07'0 0.0
2017-Nov-03 02:29N 29°46' W 095°07'0 0.0
2017-Nov-02 23:50N 29°46' W 095°07'0 0.0
2017-Nov-02 23:24N 29°46' W 095°07'0 0.0
2017-Nov-02 11:15N 29°46' W 095°07'0 0.0
2017-Nov-02 10:53N 29°46' W 095°07'0 0.0
2017-Nov-02 10:09N 29°46' W 095°07'0 0.0
2017-Nov-02 09:53N 29°46' W 095°07'0 0.0
2017-Nov-02 09:30N 29°46' W 095°07'0 0.0
2017-Nov-02 08:52N 29°46' W 095°07'0 0.0
2017-Nov-02 08:23N 29°46' W 095°07'0 0.0
2017-Nov-02 07:51N 29°46' W 095°07'0 0.1
2017-Nov-02 06:58N 29°46' W 095°07'0 0.2
2017-Nov-02 06:23N 29°46' W 095°07'1 0.1
2017-Nov-01 20:34N 29°46' W 095°06'1 0.0
2017-Oct-31 21:51N 29°46' W 095°05'0 0.0
2017-Oct-31 18:28N 29°46' W 095°05'1 1.7
2017-Oct-31 17:59N 29°46' W 095°06'0 0.0
2017-Oct-31 17:29N 29°46' W 095°06'  
Track history (hours):
 
Tides and Currents Weather Stations Pressure Air Temp Water Temp Dewpoint Dewpoint Depression Visibility Wind Speed Wind Dir Waves Ship Positions

Capt. Kirk Colletti

Owner: Genesis Marine, LLC, Houston, TX. More information available from US FCC via Universal Licensing System and Coast Guard Vessel Documentation Center.

Last reported at 2017-Nov-10 17:23 UTC. Time now 2017-Nov-22 01:37 UTC.
Position N 29°29' W 094°52'.
Warning: this ship's position is 11 days out of date.

Length 25 m; draft 3 m.

Type: Other ship. MMSI: 367505080.

Date/timePositionNaut miles runAvg speedWind from/ knotsBaromVisibWave heightAir tempDewpointWater temp
2017-Nov-10 17:23N 29°29' W 094°52'3 7.0
2017-Nov-10 16:58N 29°31' W 094°53'3 6.9
2017-Nov-10 16:30N 29°34' W 094°55'3 6.2
2017-Nov-10 16:00N 29°37' W 094°57'3 6.2
2017-Nov-10 15:30N 29°40' W 094°58'3 6.3
2017-Nov-10 14:58N 29°42' W 095°01'6 2.3
2017-Nov-10 12:24N 29°46' W 095°06'2 5.1
2017-Nov-10 12:00N 29°45' W 095°04'2 2.0
2017-Nov-10 11:12N 29°44' W 095°03'0 0.4
2017-Nov-10 10:55N 29°44' W 095°03'0 0.0
2017-Nov-10 10:30N 29°44' W 095°03'  
2017-Nov-07 13:45N 29°46' W 095°06'0 0.0
2017-Nov-07 01:09N 29°46' W 095°06'0 0.0
2017-Nov-06 22:26N 29°46' W 095°06'0 0.0
2017-Nov-05 04:32N 29°46' W 095°06'0 0.0
2017-Nov-05 04:19N 29°46' W 095°06'0 0.0
2017-Nov-05 03:58N 29°46' W 095°06'2 0.0
2017-Nov-03 12:09N 29°47' W 095°04'2 4.0
2017-Nov-03 11:42N 29°45' W 095°06'1 2.8
2017-Nov-03 11:30N 29°46' W 095°06'1 1.4
2017-Nov-03 10:55N 29°46' W 095°07'0 0.0
2017-Nov-03 10:28N 29°46' W 095°07'0 0.0
2017-Nov-03 09:57N 29°46' W 095°07'0 0.0
2017-Nov-03 09:05N 29°46' W 095°07'0 0.0
2017-Nov-03 08:53N 29°46' W 095°07'0 0.0
2017-Nov-03 08:12N 29°46' W 095°07'0 0.0
2017-Nov-03 07:50N 29°46' W 095°07'0 0.0
2017-Nov-03 07:08N 29°46' W 095°07'0 0.0
2017-Nov-03 06:54N 29°46' W 095°07'0 0.0
2017-Nov-03 05:20N 29°46' W 095°07'0 0.0
2017-Nov-03 03:52N 29°46' W 095°07'0 0.0
2017-Nov-03 03:29N 29°46' W 095°07'0 0.0
2017-Nov-03 02:59N 29°46' W 095°07'0 0.0
2017-Nov-03 02:29N 29°46' W 095°07'0 0.0
2017-Nov-02 23:50N 29°46' W 095°07'0 0.0
2017-Nov-02 23:24N 29°46' W 095°07'0 0.0
2017-Nov-02 11:15N 29°46' W 095°07'0 0.0
2017-Nov-02 10:53N 29°46' W 095°07'0 0.0
2017-Nov-02 10:09N 29°46' W 095°07'0 0.0
2017-Nov-02 09:53N 29°46' W 095°07'0 0.0
2017-Nov-02 09:30N 29°46' W 095°07'0 0.0
2017-Nov-02 08:52N 29°46' W 095°07'0 0.0
2017-Nov-02 08:23N 29°46' W 095°07'0 0.0
2017-Nov-02 07:51N 29°46' W 095°07'0 0.1
2017-Nov-02 06:58N 29°46' W 095°07'0 0.2
2017-Nov-02 06:23N 29°46' W 095°07'1 0.1
2017-Nov-01 20:34N 29°46' W 095°06'1 0.0
2017-Oct-31 21:51N 29°46' W 095°05'0 0.0
2017-Oct-31 18:28N 29°46' W 095°05'1 1.7
2017-Oct-31 17:59N 29°46' W 095°06'0 0.0
2017-Oct-31 17:29N 29°46' W 095°06'  

Dump ship's entire track history